sensor_id;sensor_type;location;lat;lon;timestamp;P1;durP1;ratioP1;P2;durP2;ratioP2
29206;SDS011;16247;50.840;4.382;2023-06-14T04:06:44;11.80;;;9.60;;
29206;SDS011;16247;50.840;4.382;2023-06-14T04:09:15;13.68;;;10.15;;
29206;SDS011;16247;50.840;4.382;2023-06-14T04:11:43;15.70;;;9.30;;
29206;SDS011;16247;50.840;4.382;2023-06-14T04:14:15;14.48;;;8.70;;
29206;SDS011;16247;50.840;4.382;2023-06-14T04:45:18;11.75;;;9.35;;
29206;SDS011;16247;50.840;4.382;2023-06-14T04:50:49;16.92;;;9.32;;
29206;SDS011;16247;50.840;4.382;2023-06-14T04:55:46;13.32;;;8.82;;
29206;SDS011;16247;50.840;4.382;2023-06-14T04:58:12;11.77;;;8.88;;
29206;SDS011;16247;50.840;4.382;2023-06-14T05:00:38;13.05;;;9.15;;
29206;SDS011;16247;50.840;4.382;2023-06-14T05:03:04;12.43;;;8.95;;
29206;SDS011;16247;50.840;4.382;2023-06-14T05:05:31;12.57;;;8.00;;
29206;SDS011;16247;50.840;4.382;2023-06-14T05:07:57;13.90;;;8.55;;
29206;SDS011;16247;50.840;4.382;2023-06-14T05:10:23;12.73;;;9.25;;
29206;SDS011;16247;50.840;4.382;2023-06-14T05:12:49;14.95;;;8.70;;
29206;SDS011;16247;50.840;4.382;2023-06-14T05:15:16;14.68;;;8.88;;
29206;SDS011;16247;50.840;4.382;2023-06-14T05:17:42;13.63;;;9.65;;
29206;SDS011;16247;50.840;4.382;2023-06-14T05:20:08;13.80;;;9.90;;
29206;SDS011;16247;50.840;4.382;2023-06-14T05:22:35;12.10;;;9.40;;
29206;SDS011;16247;50.840;4.382;2023-06-14T05:25:01;14.77;;;11.27;;
29206;SDS011;16247;50.840;4.382;2023-06-14T05:27:27;11.82;;;9.43;;
29206;SDS011;16247;50.840;4.382;2023-06-14T05:29:53;19.65;;;9.75;;
29206;SDS011;16247;50.840;4.382;2023-06-14T05:32:24;12.57;;;9.50;;
29206;SDS011;16247;50.840;4.382;2023-06-14T05:34:50;13.95;;;11.23;;
29206;SDS011;16247;50.840;4.382;2023-06-14T05:37:16;12.30;;;9.25;;
29206;SDS011;16247;50.840;4.382;2023-06-14T05:39:42;13.57;;;8.98;;
29206;SDS011;16247;50.840;4.382;2023-06-14T05:42:08;18.67;;;9.23;;
29206;SDS011;16247;50.840;4.382;2023-06-14T05:44:33;19.92;;;9.52;;
29206;SDS011;16247;50.840;4.382;2023-06-14T05:47:00;15.32;;;8.98;;
29206;SDS011;16247;50.840;4.382;2023-06-14T05:49:26;19.40;;;9.90;;
29206;SDS011;16247;50.840;4.382;2023-06-14T05:51:51;16.85;;;8.93;;
29206;SDS011;16247;50.840;4.382;2023-06-14T05:54:17;11.65;;;8.68;;
29206;SDS011;16247;50.840;4.382;2023-06-14T05:56:42;12.95;;;9.40;;
29206;SDS011;16247;50.840;4.382;2023-06-14T05:59:08;13.70;;;8.65;;
29206;SDS011;16247;50.840;4.382;2023-06-14T06:01:34;16.00;;;8.77;;
29206;SDS011;16247;50.840;4.382;2023-06-14T06:04:01;17.27;;;9.27;;
29206;SDS011;16247;50.840;4.382;2023-06-14T06:06:28;20.42;;;9.07;;
29206;SDS011;16247;50.840;4.382;2023-06-14T06:08:54;17.95;;;9.93;;
29206;SDS011;16247;50.840;4.382;2023-06-14T06:11:20;14.20;;;8.30;;
29206;SDS011;16247;50.840;4.382;2023-06-14T06:13:45;12.98;;;9.68;;
29206;SDS011;16247;50.840;4.382;2023-06-14T06:16:11;14.70;;;9.27;;
29206;SDS011;16247;50.840;4.382;2023-06-14T06:18:37;12.68;;;9.63;;
29206;SDS011;16247;50.840;4.382;2023-06-14T06:21:03;11.63;;;8.30;;
29206;SDS011;16247;50.840;4.382;2023-06-14T06:23:29;11.60;;;8.35;;
29206;SDS011;16247;50.840;4.382;2023-06-14T06:25:55;14.10;;;8.65;;
29206;SDS011;16247;50.840;4.382;2023-06-14T06:28:20;15.73;;;8.73;;
29206;SDS011;16247;50.840;4.382;2023-06-14T06:30:46;14.07;;;9.05;;
29206;SDS011;16247;50.840;4.382;2023-06-14T06:33:12;14.27;;;9.52;;
29206;SDS011;16247;50.840;4.382;2023-06-14T06:35:41;13.15;;;8.60;;
29206;SDS011;16247;50.840;4.382;2023-06-14T06:38:08;11.88;;;8.38;;
29206;SDS011;16247;50.840;4.382;2023-06-14T06:40:35;12.03;;;8.53;;
29206;SDS011;16247;50.840;4.382;2023-06-14T06:43:01;13.75;;;8.50;;
29206;SDS011;16247;50.840;4.382;2023-06-14T06:45:28;17.50;;;9.10;;
29206;SDS011;16247;50.840;4.382;2023-06-14T06:47:54;14.93;;;8.45;;
29206;SDS011;16247;50.840;4.382;2023-06-14T06:50:20;13.82;;;7.95;;
29206;SDS011;16247;50.840;4.382;2023-06-14T06:52:49;17.02;;;8.15;;
29206;SDS011;16247;50.840;4.382;2023-06-14T06:55:15;13.93;;;8.60;;
29206;SDS011;16247;50.840;4.382;2023-06-14T06:57:40;14.50;;;7.70;;
29206;SDS011;16247;50.840;4.382;2023-06-14T07:00:06;12.80;;;7.72;;
29206;SDS011;16247;50.840;4.382;2023-06-14T07:05:00;15.00;;;7.28;;
29206;SDS011;16247;50.840;4.382;2023-06-14T07:07:26;11.00;;;7.45;;
29206;SDS011;16247;50.840;4.382;2023-06-14T07:09:51;13.02;;;8.13;;
29206;SDS011;16247;50.840;4.382;2023-06-14T07:12:17;15.63;;;7.88;;
29206;SDS011;16247;50.840;4.382;2023-06-14T07:14:43;10.27;;;7.50;;
29206;SDS011;16247;50.840;4.382;2023-06-14T07:17:09;12.80;;;7.47;;
29206;SDS011;16247;50.840;4.382;2023-06-14T07:19:34;11.98;;;7.25;;
29206;SDS011;16247;50.840;4.382;2023-06-14T07:22:00;14.85;;;7.38;;
29206;SDS011;16247;50.840;4.382;2023-06-14T07:24:26;8.20;;;6.80;;
29206;SDS011;16247;50.840;4.382;2023-06-14T07:26:53;12.80;;;7.45;;
29206;SDS011;16247;50.840;4.382;2023-06-14T07:29:20;12.60;;;8.02;;
29206;SDS011;16247;50.840;4.382;2023-06-14T07:31:46;15.33;;;7.90;;
29206;SDS011;16247;50.840;4.382;2023-06-14T07:34:12;11.63;;;7.55;;
29206;SDS011;16247;50.840;4.382;2023-06-14T07:36:38;14.35;;;8.48;;
29206;SDS011;16247;50.840;4.382;2023-06-14T07:39:04;18.92;;;8.18;;
29206;SDS011;16247;50.840;4.382;2023-06-14T07:41:31;14.88;;;8.55;;
29206;SDS011;16247;50.840;4.382;2023-06-14T07:43:57;16.25;;;7.20;;
29206;SDS011;16247;50.840;4.382;2023-06-14T07:46:23;19.02;;;7.40;;
29206;SDS011;16247;50.840;4.382;2023-06-14T07:48:49;7.55;;;6.47;;
29206;SDS011;16247;50.840;4.382;2023-06-14T07:51:14;10.73;;;6.60;;
29206;SDS011;16247;50.840;4.382;2023-06-14T07:53:40;11.48;;;7.32;;
29206;SDS011;16247;50.840;4.382;2023-06-14T07:56:07;26.50;;;7.97;;
29206;SDS011;16247;50.840;4.382;2023-06-14T07:58:32;13.15;;;7.43;;
29206;SDS011;16247;50.840;4.382;2023-06-14T08:00:58;13.43;;;6.68;;
29206;SDS011;16247;50.840;4.382;2023-06-14T08:03:26;15.20;;;7.28;;
29206;SDS011;16247;50.840;4.382;2023-06-14T08:05:52;11.10;;;7.03;;
29206;SDS011;16247;50.840;4.382;2023-06-14T08:08:17;11.13;;;7.03;;
29206;SDS011;16247;50.840;4.382;2023-06-14T08:10:43;9.32;;;6.35;;
29206;SDS011;16247;50.840;4.382;2023-06-14T08:13:09;14.07;;;7.18;;
29206;SDS011;16247;50.840;4.382;2023-06-14T08:15:35;12.32;;;6.78;;
29206;SDS011;16247;50.840;4.382;2023-06-14T08:18:00;19.25;;;7.18;;
29206;SDS011;16247;50.840;4.382;2023-06-14T08:20:26;13.88;;;7.85;;
29206;SDS011;16247;50.840;4.382;2023-06-14T08:22:52;9.85;;;6.43;;
29206;SDS011;16247;50.840;4.382;2023-06-14T08:30:35;15.65;;;7.43;;
29206;SDS011;16247;50.840;4.382;2023-06-14T08:33:36;14.90;;;7.65;;
29206;SDS011;16247;50.840;4.382;2023-06-14T08:36:03;12.35;;;7.15;;
29206;SDS011;16247;50.840;4.382;2023-06-14T08:38:32;12.40;;;6.75;;
29206;SDS011;16247;50.840;4.382;2023-06-14T08:40:57;11.52;;;7.30;;
29206;SDS011;16247;50.840;4.382;2023-06-14T08:43:24;9.13;;;6.30;;
29206;SDS011;16247;50.840;4.382;2023-06-14T08:45:53;10.77;;;6.78;;
29206;SDS011;16247;50.840;4.382;2023-06-14T08:51:19;13.02;;;7.10;;
29206;SDS011;16247;50.840;4.382;2023-06-14T08:57:12;10.48;;;6.50;;
29206;SDS011;16247;50.840;4.382;2023-06-14T08:59:55;10.27;;;6.50;;
29206;SDS011;16247;50.840;4.382;2023-06-14T09:17:18;13.73;;;8.23;;
29206;SDS011;16247;50.840;4.382;2023-06-14T09:19:45;10.55;;;7.80;;
29206;SDS011;16247;50.840;4.382;2023-06-14T09:22:11;10.77;;;6.68;;
29206;SDS011;16247;50.840;4.382;2023-06-14T09:24:41;10.02;;;7.97;;
29206;SDS011;16247;50.840;4.382;2023-06-14T09:27:13;14.20;;;7.18;;
29206;SDS011;16247;50.840;4.382;2023-06-14T09:29:42;8.27;;;6.85;;
29206;SDS011;16247;50.840;4.382;2023-06-14T09:32:11;9.00;;;6.97;;
29206;SDS011;16247;50.840;4.382;2023-06-14T09:34:41;11.60;;;6.60;;
29206;SDS011;16247;50.840;4.382;2023-06-14T09:37:09;11.05;;;6.88;;
29206;SDS011;16247;50.840;4.382;2023-06-14T09:42:24;13.75;;;7.32;;
29206;SDS011;16247;50.840;4.382;2023-06-14T09:44:51;9.75;;;6.63;;
29206;SDS011;16247;50.840;4.382;2023-06-14T09:47:19;11.75;;;7.25;;
29206;SDS011;16247;50.840;4.382;2023-06-14T09:49:45;9.50;;;7.07;;
29206;SDS011;16247;50.840;4.382;2023-06-14T09:52:14;17.02;;;6.72;;
29206;SDS011;16247;50.840;4.382;2023-06-14T09:54:49;11.90;;;6.70;;
29206;SDS011;16247;50.840;4.382;2023-06-14T09:57:17;9.98;;;6.50;;
29206;SDS011;16247;50.840;4.382;2023-06-14T09:59:48;11.02;;;6.07;;
29206;SDS011;16247;50.840;4.382;2023-06-14T10:02:28;8.80;;;6.50;;
29206;SDS011;16247;50.840;4.382;2023-06-14T10:05:06;9.57;;;6.47;;
29206;SDS011;16247;50.840;4.382;2023-06-14T10:07:38;7.60;;;5.30;;
29206;SDS011;16247;50.840;4.382;2023-06-14T10:10:15;8.52;;;5.38;;
29206;SDS011;16247;50.840;4.382;2023-06-14T10:12:59;7.85;;;5.78;;
29206;SDS011;16247;50.840;4.382;2023-06-14T10:15:54;13.18;;;5.93;;
29206;SDS011;16247;50.840;4.382;2023-06-14T10:21:41;7.80;;;5.78;;
29206;SDS011;16247;50.840;4.382;2023-06-14T10:24:29;13.02;;;7.07;;
29206;SDS011;16247;50.840;4.382;2023-06-14T10:27:22;10.75;;;5.75;;
29206;SDS011;16247;50.840;4.382;2023-06-14T10:32:31;7.88;;;5.85;;
29206;SDS011;16247;50.840;4.382;2023-06-14T10:35:05;8.02;;;6.22;;
29206;SDS011;16247;50.840;4.382;2023-06-14T10:37:50;12.60;;;5.75;;
29206;SDS011;16247;50.840;4.382;2023-06-14T10:40:32;8.02;;;5.95;;
29206;SDS011;16247;50.840;4.382;2023-06-14T10:43:25;7.78;;;5.90;;
29206;SDS011;16247;50.840;4.382;2023-06-14T10:48:52;11.25;;;6.68;;
29206;SDS011;16247;50.840;4.382;2023-06-14T10:54:21;10.23;;;5.93;;
29206;SDS011;16247;50.840;4.382;2023-06-14T11:07:52;7.93;;;5.15;;
29206;SDS011;16247;50.840;4.382;2023-06-14T11:10:39;10.68;;;5.95;;
29206;SDS011;16247;50.840;4.382;2023-06-14T11:13:08;9.73;;;6.18;;
29206;SDS011;16247;50.840;4.382;2023-06-14T11:15:38;8.30;;;5.95;;
29206;SDS011;16247;50.840;4.382;2023-06-14T11:18:14;11.65;;;5.80;;
29206;SDS011;16247;50.840;4.382;2023-06-14T11:21:16;8.05;;;5.35;;
29206;SDS011;16247;50.840;4.382;2023-06-14T11:44:16;11.48;;;5.20;;
29206;SDS011;16247;50.840;4.382;2023-06-14T11:46:51;11.73;;;5.63;;
29206;SDS011;16247;50.840;4.382;2023-06-14T11:55:44;12.40;;;4.68;;
29206;SDS011;16247;50.840;4.382;2023-06-14T11:58:33;8.00;;;4.88;;
29206;SDS011;16247;50.840;4.382;2023-06-14T12:02:02;11.68;;;5.38;;
29206;SDS011;16247;50.840;4.382;2023-06-14T12:04:53;6.72;;;4.22;;
29206;SDS011;16247;50.840;4.382;2023-06-14T12:07:27;13.00;;;5.28;;
29206;SDS011;16247;50.840;4.382;2023-06-14T12:10:39;7.30;;;4.57;;
29206;SDS011;16247;50.840;4.382;2023-06-14T12:14:04;10.90;;;5.05;;
29206;SDS011;16247;50.840;4.382;2023-06-14T12:32:58;7.00;;;4.05;;
29206;SDS011;16247;50.840;4.382;2023-06-14T12:35:58;6.18;;;4.05;;
29206;SDS011;16247;50.840;4.382;2023-06-14T12:39:10;4.63;;;4.05;;
29206;SDS011;16247;50.840;4.382;2023-06-14T12:42:39;9.43;;;4.25;;
29206;SDS011;16247;50.840;4.382;2023-06-14T12:45:45;7.25;;;4.60;;
29206;SDS011;16247;50.840;4.382;2023-06-14T12:51:27;5.80;;;4.45;;
29206;SDS011;16247;50.840;4.382;2023-06-14T12:54:47;7.38;;;4.25;;
29206;SDS011;16247;50.840;4.382;2023-06-14T12:57:13;7.63;;;4.25;;
29206;SDS011;16247;50.840;4.382;2023-06-14T13:00:11;5.30;;;3.97;;
29206;SDS011;16247;50.840;4.382;2023-06-14T13:08:36;9.32;;;4.18;;
29206;SDS011;16247;50.840;4.382;2023-06-14T15:21:18;5.22;;;1.75;;
29206;SDS011;16247;50.840;4.382;2023-06-14T16:01:19;3.30;;;2.20;;
29206;SDS011;16247;50.840;4.382;2023-06-14T16:07:04;4.57;;;1.95;;
29206;SDS011;16247;50.840;4.382;2023-06-14T16:09:58;5.55;;;2.30;;
29206;SDS011;16247;50.840;4.382;2023-06-14T16:15:10;6.18;;;2.45;;
29206;SDS011;16247;50.840;4.382;2023-06-14T16:44:58;8.25;;;2.13;;
29206;SDS011;16247;50.840;4.382;2023-06-14T16:50:06;6.93;;;2.80;;
29206;SDS011;16247;50.840;4.382;2023-06-14T16:53:13;6.50;;;2.00;;
29206;SDS011;16247;50.840;4.382;2023-06-14T17:40:21;4.15;;;2.05;;
29206;SDS011;16247;50.840;4.382;2023-06-14T20:43:16;3.63;;;2.13;;
29206;SDS011;16247;50.840;4.382;2023-06-14T20:48:37;5.15;;;1.70;;
29206;SDS011;16247;50.840;4.382;2023-06-14T20:51:03;4.57;;;2.13;;
29206;SDS011;16247;50.840;4.382;2023-06-14T20:53:29;6.05;;;2.45;;
29206;SDS011;16247;50.840;4.382;2023-06-14T20:55:56;5.88;;;2.22;;
29206;SDS011;16247;50.840;4.382;2023-06-14T20:58:27;5.88;;;2.00;;
29206;SDS011;16247;50.840;4.382;2023-06-14T21:00:57;6.65;;;2.50;;
29206;SDS011;16247;50.840;4.382;2023-06-14T21:03:29;5.33;;;2.30;;
29206;SDS011;16247;50.840;4.382;2023-06-14T21:20:19;4.43;;;2.78;;
29206;SDS011;16247;50.840;4.382;2023-06-14T21:22:54;4.82;;;2.20;;
29206;SDS011;16247;50.840;4.382;2023-06-14T23:04:13;5.50;;;2.80;;
29206;SDS011;16247;50.840;4.382;2023-06-14T23:06:45;5.43;;;2.75;;
29206;SDS011;16247;50.840;4.382;2023-06-14T23:09:21;6.85;;;2.58;;
